createdAt,value
2018-09-03T00:00:00.547Z,75.89
2018-09-03T00:02:29.694Z,76.48
2018-09-03T00:04:59.156Z,76.56
2018-09-03T00:07:27.431Z,76.60
2018-09-03T00:09:55.499Z,76.43
2018-09-03T00:12:23.624Z,76.62
2018-09-03T00:14:51.652Z,76.60
2018-09-03T00:17:19.782Z,77.01
2018-09-03T00:19:47.910Z,77.42
2018-09-03T00:22:15.982Z,77.50
2018-09-03T00:24:44.043Z,77.58
2018-09-03T00:27:12.107Z,77.89
2018-09-03T00:29:40.174Z,77.83
2018-09-03T00:32:13.675Z,78.82
2018-09-03T00:34:47.123Z,78.49
2018-09-03T00:37:20.543Z,78.66
2018-09-03T00:39:53.991Z,79.29
2018-09-03T00:42:27.368Z,79.18
2018-09-03T00:45:00.856Z,78.87
2018-09-03T00:47:28.947Z,78.87
2018-09-03T00:49:57.006Z,78.76
2018-09-03T00:52:25.099Z,78.46
2018-09-03T00:54:53.189Z,78.66
2018-09-03T00:57:21.352Z,78.17
2018-09-03T00:59:49.512Z,78.54
2018-09-03T01:02:17.591Z,78.96
2018-09-03T01:04:45.655Z,78.64
2018-09-03T01:07:13.713Z,78.79
2018-09-03T01:09:41.783Z,79.18
2018-09-03T01:12:09.867Z,78.83
2018-09-03T01:14:37.975Z,79.18
2018-09-03T01:17:06.097Z,79.47
2018-09-03T01:19:34.149Z,79.56
2018-09-03T01:22:02.217Z,78.84
2018-09-03T01:24:30.293Z,78.66
2018-09-03T01:26:58.381Z,79.65
2018-09-03T01:29:26.490Z,78.96
2018-09-03T01:31:56.188Z,79.43
2018-09-03T01:34:25.383Z,79.05
2018-09-03T01:36:53.467Z,79.39
2018-09-03T01:39:21.558Z,80.04
2018-09-03T01:41:49.626Z,80.25
2018-09-03T01:44:17.707Z,79.79
2018-09-03T01:46:45.887Z,79.67
2018-09-03T01:49:13.954Z,79.34
2018-09-03T01:51:42.047Z,78.98
2018-09-03T01:54:10.151Z,78.93
2018-09-03T01:56:38.296Z,79.34
2018-09-03T01:59:13.115Z,79.83
2018-09-03T02:01:41.163Z,79.43
2018-09-03T02:04:09.243Z,80.17
2018-09-03T02:06:37.316Z,80.28
2018-09-03T02:09:08.846Z,80.48
2018-09-03T02:11:36.963Z,80.12
2018-09-03T02:14:05.055Z,80.16
2018-09-03T02:16:33.233Z,80.71
2018-09-03T02:19:01.312Z,80.94
2018-09-03T02:21:29.428Z,80.35
2018-09-03T02:23:57.550Z,80.27
2018-09-03T02:26:25.603Z,79.78
2018-09-03T02:28:53.708Z,80.52
2018-09-03T02:31:21.806Z,80.83
2018-09-03T02:33:49.983Z,80.45
2018-09-03T02:36:18.282Z,79.80
2018-09-03T02:38:46.407Z,80.68
2018-09-03T02:41:14.599Z,79.82
2018-09-03T02:43:42.743Z,79.92
2018-09-03T02:46:10.798Z,80.03
2018-09-03T02:48:38.868Z,80.19
2018-09-03T02:51:07.025Z,79.89
2018-09-03T02:53:35.148Z,80.87
2018-09-03T02:56:03.211Z,80.57
2018-09-03T02:58:31.305Z,80.16
2018-09-03T03:00:59.370Z,80.61
2018-09-03T03:03:27.444Z,80.15
2018-09-03T03:05:55.527Z,80.31
2018-09-03T03:08:23.621Z,80.22
2018-09-03T03:10:51.730Z,80.30
2018-09-03T03:13:19.861Z,80.59
2018-09-03T03:15:47.928Z,81.24
2018-09-03T03:18:16.008Z,81.83
2018-09-03T03:20:44.076Z,81.39
2018-09-03T03:23:12.183Z,82.00
2018-09-03T03:25:40.278Z,83.03
2018-09-03T03:28:08.356Z,82.91
2018-09-03T03:30:36.456Z,83.61
2018-09-03T03:33:04.551Z,83.53
2018-09-03T03:35:32.651Z,83.86
2018-09-03T03:38:00.732Z,84.04
2018-09-03T03:40:28.835Z,84.80
2018-09-03T03:42:56.880Z,85.41
2018-09-03T03:45:25.152Z,84.94
2018-09-03T03:47:53.223Z,86.66
2018-09-03T03:50:21.432Z,87.27
2018-09-03T03:52:49.523Z,87.95
2018-09-03T03:55:17.674Z,88.24
2018-09-03T03:57:45.743Z,88.42
2018-09-03T04:00:13.832Z,87.88
2018-09-03T04:02:41.944Z,88.88
2018-09-03T04:05:10.039Z,88.79
2018-09-03T04:07:38.115Z,88.72
2018-09-03T04:10:06.600Z,89.63
2018-09-03T04:12:34.683Z,89.08
2018-09-03T04:15:02.761Z,89.97
2018-09-03T04:17:30.847Z,90.79
2018-09-03T04:20:02.641Z,90.90
2018-09-03T04:22:31.577Z,91.26
2018-09-03T04:24:59.711Z,90.96
2018-09-03T04:27:27.819Z,90.24
2018-09-03T04:29:55.937Z,89.08
2018-09-03T04:32:24.184Z,89.49
2018-09-03T04:34:52.271Z,89.84
2018-09-03T04:37:20.399Z,89.94
2018-09-03T04:39:48.581Z,89.35
2018-09-03T04:42:16.677Z,89.34
2018-09-03T04:44:44.795Z,88.98
2018-09-03T04:47:12.900Z,89.26
2018-09-03T04:49:41.012Z,89.51
2018-09-03T04:52:09.095Z,89.91
2018-09-03T04:54:37.277Z,89.79
2018-09-03T04:57:05.468Z,89.76
2018-09-03T04:59:33.661Z,89.52
2018-09-03T05:02:01.884Z,90.13
2018-09-03T05:04:30.042Z,89.88
2018-09-03T05:06:58.316Z,89.45
2018-09-03T05:09:26.413Z,90.35
2018-09-03T05:11:54.607Z,91.33
2018-09-03T05:14:22.719Z,90.61
2018-09-03T05:16:50.849Z,90.02
2018-09-03T05:19:19.381Z,89.11
2018-09-03T05:21:47.489Z,89.20
2018-09-03T05:24:15.728Z,87.00
2018-09-03T05:26:44.265Z,85.03
2018-09-03T05:29:12.347Z,84.69
2018-09-03T05:31:40.431Z,84.31
2018-09-03T05:34:08.522Z,84.82
2018-09-03T05:36:36.610Z,84.03
2018-09-03T05:39:07.613Z,83.91
2018-09-03T05:41:35.690Z,83.93
2018-09-03T05:44:03.840Z,83.72
2018-09-03T05:46:31.913Z,83.75
2018-09-03T05:49:00.127Z,84.02
2018-09-03T05:51:28.206Z,83.24
2018-09-03T05:53:56.295Z,82.29
2018-09-03T05:56:24.400Z,82.17
2018-09-03T05:58:52.513Z,82.78
2018-09-03T06:01:20.592Z,82.62
2018-09-03T06:03:48.697Z,82.34
2018-09-03T06:06:16.831Z,81.83
2018-09-03T06:08:44.925Z,82.58
2018-09-03T06:11:13.037Z,82.45
2018-09-03T06:13:41.233Z,82.88
2018-09-03T06:16:09.425Z,83.14
2018-09-03T06:18:37.520Z,82.63
2018-09-03T06:21:05.747Z,82.52
2018-09-03T06:23:34.057Z,82.12
2018-09-03T06:26:02.210Z,82.42
2018-09-03T06:28:30.347Z,81.94
2018-09-03T06:30:58.472Z,81.55
2018-09-03T06:33:26.583Z,82.33
2018-09-03T06:35:54.723Z,82.55
2018-09-03T06:38:22.723Z,82.77
2018-09-03T06:40:50.810Z,81.75
2018-09-03T06:43:18.967Z,81.86
2018-09-03T06:45:47.106Z,81.76
2018-09-03T06:48:15.135Z,80.81
2018-09-03T06:50:43.207Z,81.37
2018-09-03T06:53:11.278Z,80.46
2018-09-03T06:55:39.358Z,79.98
2018-09-03T06:58:07.440Z,79.99
2018-09-03T07:00:35.571Z,79.82
2018-09-03T07:03:03.636Z,80.23
2018-09-03T07:05:31.831Z,78.75
2018-09-03T07:07:59.935Z,79.27
2018-09-03T07:10:28.019Z,79.67
2018-09-03T07:12:56.121Z,79.84
2018-09-03T07:15:24.199Z,78.93
2018-09-03T07:17:52.410Z,79.49
2018-09-03T07:20:20.497Z,79.27
2018-09-03T07:22:48.571Z,79.68
2018-09-03T07:25:16.643Z,79.30
2018-09-03T07:27:44.723Z,79.27
2018-09-03T07:30:12.796Z,78.52
2018-09-03T07:32:40.885Z,77.77
2018-09-03T07:35:09.001Z,77.43
2018-09-03T07:37:37.047Z,77.30
2018-09-03T07:40:05.652Z,77.87
2018-09-03T07:42:33.737Z,77.74
2018-09-03T07:45:01.831Z,78.26
2018-09-03T07:47:29.925Z,77.82
2018-09-03T07:49:58.033Z,77.83
2018-09-03T07:52:26.093Z,78.45
2018-09-03T07:54:54.272Z,78.44
2018-09-03T07:57:22.410Z,78.57
2018-09-03T07:59:50.514Z,78.64
2018-09-03T08:02:18.679Z,77.75
2018-09-03T08:04:46.760Z,77.91
2018-09-03T08:07:14.876Z,77.74
2018-09-03T08:09:43.006Z,77.79
2018-09-03T08:12:11.081Z,77.01
2018-09-03T08:14:39.301Z,76.38
2018-09-03T08:17:07.511Z,75.38
2018-09-03T08:19:35.608Z,75.84
2018-09-03T08:22:03.685Z,75.96
2018-09-03T08:24:31.778Z,74.96
2018-09-03T08:26:59.916Z,75.86
2018-09-03T08:29:28.025Z,75.73
2018-09-03T08:31:56.194Z,75.63
2018-09-03T08:34:24.246Z,75.31
2018-09-03T08:36:52.342Z,74.41
2018-09-03T08:39:20.487Z,74.51
2018-09-03T08:41:48.635Z,73.81
2018-09-03T08:44:16.707Z,74.29
2018-09-03T08:46:44.828Z,73.38
2018-09-03T08:49:12.971Z,72.37
2018-09-03T08:51:41.077Z,72.24
2018-09-03T08:54:09.223Z,72.54
2018-09-03T08:56:37.310Z,72.31
2018-09-03T08:59:05.424Z,72.43
2018-09-03T09:01:33.547Z,72.07
2018-09-03T09:04:01.585Z,71.72
2018-09-03T09:06:29.676Z,71.82
2018-09-03T09:08:57.814Z,73.13
2018-09-03T09:11:25.907Z,73.16
2018-09-03T09:13:53.985Z,72.61
2018-09-03T09:16:22.056Z,72.60
2018-09-03T09:18:50.139Z,72.47
2018-09-03T09:21:18.222Z,72.10
2018-09-03T09:23:46.319Z,71.97
2018-09-03T09:26:14.706Z,72.75
2018-09-03T09:28:42.788Z,72.31
2018-09-03T09:31:10.881Z,72.37
2018-09-03T09:33:38.952Z,72.38
2018-09-03T09:36:07.027Z,71.21
2018-09-03T09:38:35.123Z,71.72
2018-09-03T09:41:03.192Z,72.21
2018-09-03T09:43:31.275Z,70.30
2018-09-03T09:45:59.507Z,69.90
2018-09-03T09:48:27.626Z,69.05
2018-09-03T09:50:55.686Z,69.87
2018-09-03T09:53:23.784Z,68.63
2018-09-03T09:55:51.868Z,68.22
2018-09-03T09:58:19.976Z,70.19
2018-09-03T10:00:53.713Z,69.02
2018-09-03T10:03:22.097Z,68.23
2018-09-03T10:05:50.175Z,67.32
2018-09-03T10:08:18.275Z,67.54
2018-09-03T10:10:46.354Z,67.83
2018-09-03T10:13:14.448Z,67.03
2018-09-03T10:15:42.515Z,65.97
2018-09-03T10:18:10.583Z,66.79
2018-09-03T10:20:38.702Z,66.96
2018-09-03T10:23:07.109Z,66.45
2018-09-03T10:25:35.232Z,66.76
2018-09-03T10:28:03.306Z,66.65
2018-09-03T10:30:31.367Z,66.05
2018-09-03T10:32:59.484Z,65.87
2018-09-03T10:35:27.560Z,64.97
2018-09-03T10:37:55.611Z,65.47
2018-09-03T10:40:23.711Z,66.37
2018-09-03T10:42:51.862Z,65.30
2018-09-03T10:45:19.917Z,65.56
2018-09-03T10:47:48.039Z,65.89
2018-09-03T10:50:16.446Z,66.05
2018-09-03T10:52:44.552Z,67.02
2018-09-03T10:55:12.650Z,66.15
2018-09-03T10:57:40.739Z,66.22
2018-09-03T11:00:08.875Z,66.82
2018-09-03T11:02:37.031Z,67.03
2018-09-03T11:05:05.188Z,67.46
2018-09-03T11:07:33.305Z,66.43
2018-09-03T11:10:01.398Z,67.50
2018-09-03T11:12:29.480Z,67.18
2018-09-03T11:14:57.567Z,67.12
2018-09-03T11:17:25.648Z,66.49
2018-09-03T11:19:56.938Z,66.78
2018-09-03T11:22:25.990Z,67.03
2018-09-03T11:24:54.053Z,65.90
2018-09-03T11:27:22.175Z,65.09
2018-09-03T11:29:50.248Z,65.13
2018-09-03T11:32:18.388Z,65.13
2018-09-03T11:34:46.751Z,64.90
2018-09-03T11:37:14.836Z,64.31
2018-09-03T11:39:42.929Z,64.44
2018-09-03T11:42:11.008Z,64.26
2018-09-03T11:44:39.101Z,63.88
2018-09-03T11:47:07.172Z,64.32
2018-09-03T11:49:35.267Z,64.16
2018-09-03T11:52:03.331Z,62.75
2018-09-03T11:54:31.443Z,63.11
2018-09-03T11:56:59.495Z,63.28
2018-09-03T11:59:27.581Z,63.67
2018-09-03T12:01:55.651Z,64.14
2018-09-03T12:04:23.733Z,63.68
2018-09-03T12:06:51.810Z,64.09
2018-09-03T12:09:19.885Z,64.36
2018-09-03T12:11:47.960Z,64.01
2018-09-03T12:14:22.047Z,63.97
2018-09-03T12:16:50.157Z,64.00
2018-09-03T12:19:18.226Z,64.06
2018-09-03T12:21:46.308Z,64.46
2018-09-03T12:24:14.387Z,64.02
2018-09-03T12:26:42.471Z,64.50
2018-09-03T12:29:10.567Z,64.43
2018-09-03T12:31:38.664Z,64.49
2018-09-03T12:34:06.764Z,64.71
2018-09-03T12:36:34.814Z,64.58
2018-09-03T12:39:02.904Z,64.90
2018-09-03T12:41:30.979Z,64.45
2018-09-03T12:43:59.382Z,64.82
2018-09-03T12:46:27.461Z,65.58
2018-09-03T12:48:55.523Z,65.10
2018-09-03T12:51:23.632Z,65.00
2018-09-03T12:53:51.719Z,65.27
2018-09-03T12:56:19.788Z,65.46
2018-09-03T12:58:47.900Z,65.22
2018-09-03T13:01:15.939Z,65.14
2018-09-03T13:03:44.023Z,65.12
2018-09-03T13:06:12.203Z,64.71
2018-09-03T13:08:40.256Z,64.06
2018-09-03T13:11:08.378Z,64.48
2018-09-03T13:13:36.448Z,63.92
2018-09-03T13:16:04.575Z,64.01
2018-09-03T13:18:32.658Z,63.40
2018-09-03T13:21:00.722Z,63.50
2018-09-03T13:23:28.811Z,63.82
2018-09-03T13:25:56.899Z,64.30
2018-09-03T13:28:24.981Z,64.60
2018-09-03T13:30:53.085Z,64.34
2018-09-03T13:33:21.148Z,64.46
2018-09-03T13:35:49.240Z,64.55
2018-09-03T13:38:17.331Z,64.20
2018-09-03T13:40:45.410Z,64.68
2018-09-03T13:43:13.496Z,64.82
2018-09-03T13:45:41.625Z,64.93
2018-09-03T13:48:09.722Z,65.21
2018-09-03T13:50:37.868Z,65.28
2018-09-03T13:53:06.123Z,65.41
2018-09-03T13:55:34.207Z,65.01
2018-09-03T13:58:02.276Z,65.48
2018-09-03T14:00:30.345Z,65.46
2018-09-03T14:02:58.413Z,65.50
2018-09-03T14:05:26.484Z,65.80
2018-09-03T14:07:54.602Z,65.21
2018-09-03T14:10:22.723Z,65.50
2018-09-03T14:12:50.857Z,66.06
2018-09-03T14:15:18.940Z,66.26
2018-09-03T14:17:46.991Z,66.58
2018-09-03T14:20:15.069Z,65.94
2018-09-03T14:25:10.292Z,65.77
2018-09-03T14:27:38.348Z,65.38
2018-09-03T14:30:06.524Z,65.27
2018-09-03T14:32:34.588Z,65.48
2018-09-03T14:35:02.670Z,65.82
2018-09-03T14:37:30.735Z,65.66
2018-09-03T14:39:58.789Z,65.75
2018-09-03T14:42:26.872Z,66.00
2018-09-03T14:44:55.135Z,65.90
2018-09-03T14:47:23.262Z,66.05
2018-09-03T14:49:51.314Z,65.19
2018-09-03T14:52:19.394Z,65.03
2018-09-03T14:54:47.648Z,64.85
2018-09-03T14:57:15.743Z,64.70
2018-09-03T14:59:43.835Z,64.24
2018-09-03T15:02:12.104Z,64.44
2018-09-03T15:04:40.212Z,64.26
2018-09-03T15:07:08.300Z,64.08
2018-09-03T15:09:36.381Z,64.16
2018-09-03T15:12:04.510Z,63.87
2018-09-03T15:14:32.592Z,63.97
2018-09-03T15:17:00.689Z,63.71
2018-09-03T15:19:28.787Z,63.91
2018-09-03T15:21:56.871Z,63.09
2018-09-03T15:24:25.004Z,62.95
2018-09-03T15:26:53.086Z,63.06
2018-09-03T15:29:21.133Z,63.13
2018-09-03T15:31:49.200Z,63.48
2018-09-03T15:34:17.311Z,64.11
2018-09-03T15:36:45.494Z,64.58
2018-09-03T15:39:13.694Z,64.79
2018-09-03T15:41:42.205Z,64.81
2018-09-03T15:44:10.321Z,64.82
2018-09-03T15:46:38.380Z,64.96
2018-09-03T15:49:06.469Z,64.91
2018-09-03T15:51:34.513Z,64.56
2018-09-03T15:54:02.655Z,64.53
2018-09-03T15:56:30.639Z,64.79
2018-09-03T15:58:58.722Z,64.49
2018-09-03T16:01:26.812Z,64.20
2018-09-03T16:03:55.131Z,64.54
2018-09-03T16:06:23.200Z,63.79
2018-09-03T16:08:51.424Z,64.15
2018-09-03T16:11:19.551Z,64.39
2018-09-03T16:13:47.619Z,64.84
2018-09-03T16:16:15.693Z,65.41
2018-09-03T16:18:43.831Z,66.16
2018-09-03T16:21:11.895Z,66.11
2018-09-03T16:23:40.055Z,66.04
2018-09-03T16:26:08.119Z,65.75
2018-09-03T16:28:36.207Z,65.93
2018-09-03T16:31:04.282Z,66.37
2018-09-03T16:33:32.386Z,66.14
2018-09-03T16:36:00.563Z,65.91
2018-09-03T16:38:28.587Z,66.00
2018-09-03T16:40:56.659Z,66.53
2018-09-03T16:43:24.736Z,66.59
2018-09-03T16:45:52.829Z,66.93
2018-09-03T16:48:20.919Z,66.53
2018-09-03T16:50:49.079Z,66.51
2018-09-03T16:53:17.145Z,66.54
2018-09-03T16:55:45.232Z,66.42
2018-09-03T16:58:13.403Z,66.69
2018-09-03T17:00:41.479Z,67.10
2018-09-03T17:03:09.552Z,67.72
2018-09-03T17:05:37.602Z,68.09
2018-09-03T17:08:05.844Z,68.09
2018-09-03T17:10:33.787Z,68.76
2018-09-03T17:13:01.888Z,69.35
2018-09-03T17:15:29.888Z,69.72
2018-09-03T17:17:57.975Z,69.97
2018-09-03T17:20:26.086Z,69.74
2018-09-03T17:22:54.191Z,70.66
2018-09-03T17:25:22.252Z,70.68
2018-09-03T17:27:50.355Z,70.35
2018-09-03T17:30:19.162Z,70.75
2018-09-03T17:32:47.257Z,70.62
2018-09-03T17:35:15.333Z,70.69
2018-09-03T17:37:43.403Z,71.36
2018-09-03T17:40:11.468Z,70.85
2018-09-03T17:42:39.545Z,72.00
2018-09-03T17:45:08.307Z,71.97
2018-09-03T17:47:36.871Z,71.68
2018-09-03T17:50:05.413Z,71.97
2018-09-03T17:52:34.435Z,71.76
2018-09-03T17:55:06.190Z,72.44
2018-09-03T17:57:34.377Z,73.05
2018-09-03T18:00:02.955Z,73.06
2018-09-03T18:02:31.120Z,72.43
2018-09-03T18:04:59.302Z,72.87
2018-09-03T18:07:27.489Z,73.80
2018-09-03T18:09:55.936Z,73.79
2018-09-03T18:12:27.516Z,73.77
2018-09-03T18:14:57.144Z,73.78
2018-09-03T18:17:25.367Z,73.32
2018-09-03T18:19:53.598Z,74.07
2018-09-03T18:22:22.479Z,73.22
2018-09-03T18:24:51.281Z,74.69
2018-09-03T18:27:19.786Z,74.68
2018-09-03T18:29:51.028Z,74.75
2018-09-03T18:32:19.645Z,74.52
2018-09-03T18:34:48.026Z,74.75
2018-09-03T18:37:16.943Z,74.69
2018-09-03T18:39:47.063Z,74.61
2018-09-03T18:42:15.328Z,74.94
2018-09-03T18:44:43.860Z,75.06
2018-09-03T18:47:12.054Z,74.91
2018-09-03T18:49:40.294Z,75.16
2018-09-03T18:52:09.155Z,75.07
2018-09-03T18:54:37.629Z,75.02
2018-09-03T18:57:05.923Z,75.06
2018-09-03T18:59:34.161Z,75.55
2018-09-03T19:02:03.223Z,75.54
2018-09-03T19:04:31.900Z,75.11
2018-09-03T19:07:03.994Z,75.44
2018-09-03T19:09:33.306Z,75.96
2018-09-03T19:12:01.598Z,76.29
2018-09-03T19:14:29.944Z,75.14
2018-09-03T19:16:58.189Z,75.03
2018-09-03T19:19:30.488Z,76.36
2018-09-03T19:21:58.846Z,76.18
2018-09-03T19:24:27.495Z,75.24
2018-09-03T19:26:57.305Z,75.57
2018-09-03T19:29:25.547Z,75.39
2018-09-03T19:31:53.791Z,75.35
2018-09-03T19:34:22.186Z,75.32
2018-09-03T19:36:52.150Z,76.66
2018-09-03T19:39:20.727Z,77.73
2018-09-03T19:41:48.964Z,78.57
2018-09-03T19:44:17.463Z,79.48
2018-09-03T19:46:48.384Z,79.84
2018-09-03T19:49:16.588Z,80.35
2018-09-03T19:51:45.328Z,81.16
2018-09-03T19:54:13.753Z,81.23
2018-09-03T19:56:41.960Z,82.24
2018-09-03T19:59:13.579Z,83.81
2018-09-03T20:01:41.813Z,85.07
2018-09-03T20:04:10.608Z,84.91
2018-09-03T20:06:42.124Z,85.80
2018-09-03T20:09:14.199Z,86.05
2018-09-03T20:11:57.635Z,86.10
2018-09-03T20:14:26.290Z,87.41
2018-09-03T20:16:54.564Z,87.00
2018-09-03T20:19:22.896Z,86.52
2018-09-03T20:21:51.077Z,87.89
2018-09-03T20:24:19.668Z,87.37
2018-09-03T20:26:48.681Z,87.43
2018-09-03T20:35:28.288Z,87.73
2018-09-03T20:37:56.480Z,88.67
2018-09-03T20:40:24.763Z,90.15
2018-09-03T20:42:54.055Z,90.45
2018-09-03T20:45:24.173Z,90.25
2018-09-03T20:47:52.479Z,90.12
2018-09-03T20:50:20.712Z,89.50
2018-09-03T20:52:49.046Z,88.48
2018-09-03T20:55:17.380Z,88.98
2018-09-03T20:57:45.630Z,89.11
2018-09-03T21:00:13.858Z,88.71
2018-09-03T21:02:42.578Z,89.58
2018-09-03T21:05:11.846Z,91.57
2018-09-03T21:07:40.092Z,91.65
2018-09-03T21:10:08.532Z,91.81
2018-09-03T21:12:36.780Z,92.58
2018-09-03T21:15:05.116Z,91.99
2018-09-03T21:17:33.304Z,91.71
2018-09-03T21:20:01.573Z,92.33
2018-09-03T21:22:29.855Z,92.26
2018-09-03T21:24:58.690Z,92.06
2018-09-03T21:27:27.020Z,91.42
2018-09-03T21:29:55.322Z,91.80
2018-09-03T21:32:23.752Z,90.95
2018-09-03T21:34:52.031Z,92.10
2018-09-03T21:37:21.324Z,91.58
2018-09-03T21:39:49.623Z,91.28
2018-09-03T21:42:17.810Z,90.21
2018-09-03T21:44:46.052Z,87.97
2018-09-03T21:47:14.273Z,87.84
2018-09-03T21:49:42.511Z,87.85
2018-09-03T21:52:10.726Z,86.25
2018-09-03T21:54:38.921Z,86.47
2018-09-03T21:57:07.977Z,85.65
2018-09-03T21:59:36.283Z,86.78
2018-09-03T22:02:08.894Z,87.76
2018-09-03T22:04:38.165Z,88.24
2018-09-03T22:07:07.026Z,88.86
2018-09-03T22:09:35.568Z,90.05
2018-09-03T22:12:03.863Z,89.56
2018-09-03T22:14:32.193Z,89.37
2018-09-03T22:17:00.700Z,89.57
2018-09-03T22:19:28.892Z,89.96
2018-09-03T22:21:57.181Z,90.43
2018-09-03T22:24:25.283Z,91.22
2018-09-03T22:26:53.366Z,91.29
2018-09-03T22:29:21.455Z,92.14
2018-09-03T22:31:49.544Z,91.04
2018-09-03T22:34:17.636Z,90.87
2018-09-03T22:36:45.780Z,91.20
2018-09-03T22:39:14.232Z,90.82
2018-09-03T22:41:42.570Z,90.42
2018-09-03T22:44:10.666Z,91.42
2018-09-03T22:46:38.743Z,91.66
2018-09-03T22:49:06.996Z,91.53
2018-09-03T22:51:35.101Z,92.08
2018-09-03T22:54:03.192Z,91.85
2018-09-03T22:56:31.282Z,92.05
2018-09-03T22:58:59.367Z,92.07
2018-09-03T23:01:27.456Z,92.67
2018-09-03T23:03:55.591Z,93.71
2018-09-03T23:06:23.732Z,93.23
2018-09-03T23:08:51.820Z,92.36
2018-09-03T23:11:19.936Z,92.32
2018-09-03T23:13:48.012Z,92.52
2018-09-03T23:16:16.091Z,92.24
2018-09-03T23:18:44.355Z,92.51
2018-09-03T23:21:12.452Z,92.05
2018-09-03T23:23:40.527Z,91.83
2018-09-03T23:26:08.612Z,91.95
2018-09-03T23:28:36.699Z,92.04
2018-09-03T23:31:04.803Z,91.24
2018-09-03T23:33:32.959Z,91.94
2018-09-03T23:36:01.048Z,91.59
2018-09-03T23:38:29.125Z,91.87
2018-09-03T23:40:57.259Z,93.42
2018-09-03T23:43:25.359Z,92.79
2018-09-03T23:45:53.454Z,93.35
2018-09-03T23:48:21.551Z,93.86
2018-09-03T23:50:49.614Z,94.01
2018-09-03T23:53:17.696Z,93.73
2018-09-03T23:55:45.775Z,93.20
2018-09-03T23:58:13.858Z,93.93
